Beverly Rgnl Information

FAA: BVY - ICAO: KBVY

Beverly Rgnl (Airport) Location

State Massachusetts
County Essex
City Beverly
Beverly Rgnl (Airport) is 3 miles northwest of Beverly, MA.
Latitude 42-35-02.9000N
Longitude 070-54-58.1000W
Elevation 107ft

Beverly Rgnl METARs

METAR KBVY 262253Z 33010KT 10SM CLR M08/M21 A3035 RMK AO2 SLP277 T10831211
Altimeter 30.35"
Temperature -8.3°C (17.1°F)
Wind 330° at 10KT
Clouds Skies are clear.
Visibility 10.0mi
Time observed: 2022-01-26T22:53:00Z

Beverly Rgnl (Airport) Details

Status Operational
Activation April 1940
Ownership Public
Usage Public
Chart NEW YORK
ATC on-site Yes
Beacon schedule sunset-sunrise
Beacon color clear green

Beverly Rgnl (Airport) Contacts

Owner CITY OF BEVERLY
Owner address CITY HALL, CABOT ST, BEVERLY, MA 01915
Owner phone 978-921-6000
Manager RICHARD J. SHULMAN
Manager address 2 MITRA LANE, ELIOT, ME 03903
Manager phone 207-439-6544

Beverly Rgnl Radio Frequencies

Beverly Rgnl (Airport) Radio Frequencies

UNICOM 122.95
Common traffic advisory frequency (CTAF) 125.2